createdAt,value
2023-10-23T00:02:10.110Z,100099.80
2023-10-23T00:04:38.669Z,100100.60
2023-10-23T00:07:07.117Z,100103.20
2023-10-23T00:09:35.238Z,100102.60
2023-10-23T00:12:04.520Z,100105.20
2023-10-23T00:14:32.816Z,100105.80
2023-10-23T00:17:00.981Z,100109.20
2023-10-23T00:19:28.979Z,100108.40
2023-10-23T00:21:58.244Z,100111.00
2023-10-23T00:24:28.000Z,100107.20
2023-10-23T00:26:57.149Z,100116.60
2023-10-23T00:29:25.234Z,100104.00
2023-10-23T00:31:54.300Z,100104.20
2023-10-23T00:34:22.479Z,100098.20
2023-10-23T00:36:50.425Z,100097.40
2023-10-23T00:39:18.483Z,100096.60
2023-10-23T00:41:46.648Z,100094.00
2023-10-23T00:44:15.702Z,100095.80
2023-10-23T00:46:44.180Z,100094.40
2023-10-23T00:49:14.583Z,100087.40
2023-10-23T00:51:42.719Z,100086.80
2023-10-23T00:54:10.988Z,100087.20
2023-10-23T00:56:39.193Z,100090.60
2023-10-23T00:59:09.017Z,100084.40
2023-10-23T01:01:38.893Z,100087.00
2023-10-23T01:04:07.740Z,100083.60
2023-10-23T01:06:36.008Z,100080.20
2023-10-23T01:09:04.368Z,100084.40
2023-10-23T01:11:32.463Z,100082.60
2023-10-23T01:14:00.632Z,100083.60
2023-10-23T01:16:28.617Z,100086.40
2023-10-23T01:18:57.126Z,100087.40
2023-10-23T01:21:25.177Z,100084.00
2023-10-23T01:23:53.525Z,100085.80
2023-10-23T01:26:21.706Z,100085.20
2023-10-23T01:28:49.693Z,100090.60
2023-10-23T01:31:18.052Z,100092.60
2023-10-23T01:33:46.817Z,100096.80
2023-10-23T01:36:15.562Z,100095.40
2023-10-23T01:38:44.617Z,100089.40
2023-10-23T01:41:12.955Z,100089.00
2023-10-23T01:43:41.035Z,100091.80
2023-10-23T01:46:09.037Z,100089.20
2023-10-23T01:48:37.177Z,100086.00
2023-10-23T01:51:05.262Z,100087.60
2023-10-23T01:53:33.232Z,100091.80
2023-10-23T01:56:07.422Z,100090.60
2023-10-23T01:58:35.474Z,100095.20
2023-10-23T02:01:03.670Z,100098.00
2023-10-23T02:03:33.268Z,100096.20
2023-10-23T02:06:01.655Z,100097.40
2023-10-23T02:08:29.763Z,100095.60
2023-10-23T02:10:57.907Z,100099.80
2023-10-23T02:13:25.979Z,100096.40
2023-10-23T02:15:53.963Z,100101.60
2023-10-23T02:18:22.365Z,100106.40
2023-10-23T02:20:51.857Z,100106.00
2023-10-23T02:23:20.030Z,100107.60
2023-10-23T02:25:47.982Z,100112.00
2023-10-23T02:28:16.006Z,100117.20
2023-10-23T02:30:44.522Z,100116.80
2023-10-23T02:33:12.827Z,100123.60
2023-10-23T02:35:40.812Z,100123.60
2023-10-23T02:38:08.817Z,100119.80
2023-10-23T02:40:38.935Z,100116.60
2023-10-23T02:43:07.092Z,100116.80
2023-10-23T02:45:35.323Z,100116.20
2023-10-23T02:48:03.455Z,100115.40
2023-10-23T02:50:31.361Z,100123.60
2023-10-23T02:52:59.577Z,100127.00
2023-10-23T02:55:28.012Z,100124.60
2023-10-23T02:57:56.141Z,100127.20
2023-10-23T03:00:24.987Z,100125.00
2023-10-23T03:02:53.494Z,100128.00
2023-10-23T03:05:22.077Z,100125.20
2023-10-23T03:07:50.065Z,100131.20
2023-10-23T03:10:20.912Z,100129.60
2023-10-23T03:12:48.934Z,100123.40
2023-10-23T03:15:17.652Z,100121.20
2023-10-23T03:17:45.942Z,100120.60
2023-10-23T03:20:14.143Z,100123.60
2023-10-23T03:22:42.349Z,100119.80
2023-10-23T03:25:10.958Z,100119.40
2023-10-23T03:27:39.235Z,100119.40
2023-10-23T03:30:07.911Z,100120.00
2023-10-23T03:32:36.528Z,100122.60
2023-10-23T03:35:05.580Z,100121.40
2023-10-23T03:37:33.554Z,100124.20
2023-10-23T03:40:01.548Z,100124.20
2023-10-23T03:42:29.619Z,100124.80
2023-10-23T03:44:57.656Z,100122.20
2023-10-23T03:47:25.713Z,100123.20
2023-10-23T03:49:53.597Z,100120.00
2023-10-23T03:52:21.748Z,100124.80
2023-10-23T03:54:49.915Z,100122.00
2023-10-23T03:57:17.977Z,100120.20
2023-10-23T03:59:46.292Z,100121.80
2023-10-23T04:02:14.256Z,100123.80
2023-10-23T04:04:42.345Z,100123.00
2023-10-23T04:07:10.464Z,100117.00
2023-10-23T04:09:38.605Z,100120.60
2023-10-23T04:12:07.478Z,100117.80
2023-10-23T04:14:35.479Z,100123.40
2023-10-23T04:17:04.712Z,100126.80
2023-10-23T04:19:32.741Z,100131.40
2023-10-23T04:22:00.726Z,100131.40
2023-10-23T04:24:28.865Z,100129.60
2023-10-23T04:26:57.107Z,100129.40
2023-10-23T04:29:25.056Z,100127.40
2023-10-23T04:31:53.028Z,100128.40
2023-10-23T04:34:21.180Z,100128.60
2023-10-23T04:36:49.199Z,100132.40
2023-10-23T04:39:17.123Z,100131.40
2023-10-23T04:41:45.180Z,100132.20
2023-10-23T04:44:13.278Z,100127.60
2023-10-23T04:46:41.362Z,100134.00
2023-10-23T04:49:09.254Z,100136.20
2023-10-23T04:51:37.298Z,100134.20
2023-10-23T04:54:05.338Z,100136.20
2023-10-23T04:56:33.274Z,100138.60
2023-10-23T04:59:01.245Z,100149.40
2023-10-23T05:01:29.218Z,100151.40
2023-10-23T05:03:57.221Z,100150.40
2023-10-23T05:06:28.283Z,100149.60
2023-10-23T05:08:56.588Z,100153.80
2023-10-23T05:11:24.638Z,100152.00
2023-10-23T05:13:52.525Z,100157.00
2023-10-23T05:16:20.728Z,100160.80
2023-10-23T05:18:49.005Z,100165.40
2023-10-23T05:21:17.163Z,100176.20
2023-10-23T05:23:45.148Z,100180.40
2023-10-23T05:26:13.316Z,100183.20
2023-10-23T05:28:44.809Z,100180.60
2023-10-23T05:31:12.834Z,100181.80
2023-10-23T05:33:40.997Z,100180.60
2023-10-23T05:36:11.019Z,100183.00
2023-10-23T05:38:39.874Z,100190.60
2023-10-23T05:41:09.931Z,100193.60
2023-10-23T05:43:38.186Z,100198.40
2023-10-23T05:46:06.812Z,100202.40
2023-10-23T05:48:35.707Z,100210.40
2023-10-23T05:51:06.162Z,100211.20
2023-10-23T05:53:35.700Z,100213.40
2023-10-23T05:56:05.267Z,100213.60
2023-10-23T05:58:34.543Z,100209.00
2023-10-23T06:01:11.292Z,100208.20
2023-10-23T06:03:39.887Z,100207.20
2023-10-23T06:06:08.451Z,100202.60
2023-10-23T06:08:36.656Z,100202.20
2023-10-23T06:11:09.307Z,100208.20
2023-10-23T06:13:37.732Z,100211.20
2023-10-23T06:16:06.619Z,100213.60
2023-10-23T06:18:36.983Z,100214.00
2023-10-23T06:21:06.928Z,100213.40
2023-10-23T06:23:41.781Z,100218.00
2023-10-23T06:26:10.471Z,100212.00
2023-10-23T06:28:39.254Z,100218.40
2023-10-23T06:31:12.145Z,100224.20
2023-10-23T06:33:40.616Z,100224.00
2023-10-23T06:36:09.461Z,100227.20
2023-10-23T06:38:38.367Z,100236.20
2023-10-23T06:41:08.105Z,100241.40
2023-10-23T06:43:38.438Z,100244.40
2023-10-23T06:46:07.646Z,100244.60
2023-10-23T06:48:36.056Z,100251.20
2023-10-23T06:51:05.346Z,100258.80
2023-10-23T06:53:33.598Z,100261.80
2023-10-23T06:56:02.208Z,100264.00
2023-10-23T06:58:30.136Z,100251.20
2023-10-23T07:01:05.300Z,100259.60
2023-10-23T07:03:33.569Z,100265.80
2023-10-23T07:06:06.868Z,100258.80
2023-10-23T07:08:35.732Z,100259.40
2023-10-23T07:11:04.638Z,100259.80
2023-10-23T07:13:32.708Z,100260.20
2023-10-23T07:16:04.491Z,100260.40
2023-10-23T07:18:32.834Z,100268.20
2023-10-23T07:21:01.390Z,100273.40
2023-10-23T07:23:33.050Z,100276.40
2023-10-23T07:26:15.902Z,100274.40
2023-10-23T07:28:44.323Z,100272.20
2023-10-23T07:31:13.305Z,100267.00
2023-10-23T07:33:41.607Z,100271.00
2023-10-23T07:36:14.586Z,100273.20
2023-10-23T07:38:44.066Z,100274.60
2023-10-23T07:41:13.645Z,100275.40
2023-10-23T07:43:42.994Z,100273.60
2023-10-23T07:48:43.332Z,100278.20
2023-10-23T07:51:11.684Z,100271.20
2023-10-23T07:53:39.957Z,100267.80
2023-10-23T07:56:08.163Z,100272.80
2023-10-23T07:58:36.460Z,100272.60
2023-10-23T08:01:12.778Z,100277.00
2023-10-23T08:03:41.341Z,100280.80
2023-10-23T08:06:11.996Z,100278.00
2023-10-23T08:08:42.069Z,100278.60
2023-10-23T08:11:12.157Z,100279.80
2023-10-23T08:13:40.543Z,100281.20
2023-10-23T08:16:09.091Z,100280.40
2023-10-23T08:18:40.590Z,100285.00
2023-10-23T08:21:16.560Z,100288.40
2023-10-23T08:23:54.315Z,100297.60
2023-10-23T08:26:22.783Z,100299.00
2023-10-23T08:31:37.305Z,100294.00
2023-10-23T08:34:08.856Z,100292.80
2023-10-23T08:36:37.449Z,100292.60
2023-10-23T08:39:05.757Z,100293.80
2023-10-23T08:41:35.343Z,100296.00
2023-10-23T08:44:04.640Z,100298.40
2023-10-23T08:46:34.999Z,100307.40
2023-10-23T08:49:04.207Z,100310.00
2023-10-23T08:51:32.835Z,100308.40
2023-10-23T08:54:18.832Z,100312.80
2023-10-23T08:56:55.403Z,100310.80
2023-10-23T08:59:23.674Z,100303.80
2023-10-23T09:01:52.263Z,100308.20
2023-10-23T09:04:20.413Z,100309.80
2023-10-23T09:06:49.030Z,100311.80
2023-10-23T09:09:45.000Z,100306.60
2023-10-23T09:12:32.036Z,100304.20
2023-10-23T09:15:14.281Z,100306.40
2023-10-23T09:17:43.081Z,100305.00
2023-10-23T09:20:19.989Z,100308.20
2023-10-23T09:22:51.066Z,100307.00
2023-10-23T09:25:19.901Z,100306.20
2023-10-23T09:27:48.245Z,100302.20
2023-10-23T09:30:22.489Z,100305.60
2023-10-23T09:32:55.815Z,100303.40
2023-10-23T09:35:27.369Z,100300.20
2023-10-23T09:37:57.718Z,100297.40
2023-10-23T09:40:26.196Z,100292.60
2023-10-23T09:42:55.591Z,100290.20
2023-10-23T09:45:24.944Z,100293.40
2023-10-23T09:48:00.059Z,100289.40
2023-10-23T09:50:29.226Z,100283.20
2023-10-23T09:52:58.521Z,100279.80
2023-10-23T09:55:31.830Z,100279.80
2023-10-23T09:58:05.815Z,100275.00
2023-10-23T10:00:35.673Z,100273.60
2023-10-23T10:03:12.703Z,100270.60
2023-10-23T10:05:43.908Z,100267.00
2023-10-23T10:08:17.433Z,100268.80
2023-10-23T10:10:46.096Z,100262.40
2023-10-23T10:13:16.321Z,100266.00
2023-10-23T10:15:50.417Z,100269.60
2023-10-23T10:18:18.901Z,100268.80
2023-10-23T10:20:49.340Z,100265.20
2023-10-23T10:23:18.861Z,100263.20
2023-10-23T10:25:47.856Z,100260.60
2023-10-23T10:28:16.236Z,100260.80
2023-10-23T10:30:52.205Z,100262.80
2023-10-23T10:34:21.560Z,100249.60
2023-10-23T10:36:11.586Z,100247.60
2023-10-23T10:38:39.897Z,100242.20
2023-10-23T10:41:14.082Z,100236.80
2023-10-23T10:43:45.250Z,100233.40
2023-10-23T10:46:21.434Z,100232.00
2023-10-23T10:48:52.225Z,100230.20
2023-10-23T10:51:28.943Z,100228.20
2023-10-23T10:54:04.490Z,100224.20
2023-10-23T10:56:33.110Z,100220.80
2023-10-23T10:59:02.145Z,100221.00
2023-10-23T11:01:31.336Z,100218.60
2023-10-23T11:04:01.326Z,100220.80
2023-10-23T11:06:30.731Z,100213.80
2023-10-23T11:09:00.306Z,100211.20
2023-10-23T11:11:29.340Z,100209.80
2023-10-23T11:14:03.554Z,100203.00
2023-10-23T11:16:32.673Z,100204.60
2023-10-23T11:19:02.091Z,100205.60
2023-10-23T11:21:30.124Z,100200.00
2023-10-23T11:23:58.232Z,100198.60
2023-10-23T11:26:27.212Z,100202.00
2023-10-23T11:28:55.155Z,100197.80
2023-10-23T11:31:23.598Z,100194.20
2023-10-23T11:33:53.221Z,100190.80
2023-10-23T11:36:22.684Z,100190.60
2023-10-23T11:38:51.713Z,100187.60
2023-10-23T11:41:22.250Z,100188.40
2023-10-23T11:43:50.421Z,100188.20
2023-10-23T11:46:19.111Z,100187.00
2023-10-23T11:48:47.712Z,100187.80
2023-10-23T11:51:16.566Z,100183.20
2023-10-23T11:53:47.466Z,100177.00
2023-10-23T11:56:15.548Z,100173.40
2023-10-23T11:58:46.734Z,100177.80
2023-10-23T12:01:15.197Z,100174.40
2023-10-23T12:03:43.168Z,100174.00
2023-10-23T12:06:11.446Z,100165.20
2023-10-23T12:08:39.531Z,100164.40
2023-10-23T12:11:07.692Z,100163.60
2023-10-23T12:13:37.023Z,100170.80
2023-10-23T12:16:05.468Z,100166.60
2023-10-23T12:18:33.680Z,100162.60
2023-10-23T12:21:02.257Z,100161.60
2023-10-23T12:23:30.337Z,100155.00
2023-10-23T12:25:58.883Z,100153.40
2023-10-23T12:28:27.409Z,100154.60
2023-10-23T12:30:56.081Z,100154.40
2023-10-23T12:33:30.312Z,100151.60
2023-10-23T12:36:06.898Z,100152.60
2023-10-23T12:38:35.397Z,100148.60
2023-10-23T12:41:03.615Z,100149.40
2023-10-23T12:43:31.894Z,100148.20
2023-10-23T12:46:01.714Z,100145.80
2023-10-23T12:48:30.134Z,100144.60
2023-10-23T12:50:58.365Z,100146.20
2023-10-23T12:53:26.446Z,100138.80
2023-10-23T12:55:54.424Z,100140.20
2023-10-23T12:58:22.608Z,100131.40
2023-10-23T13:00:50.748Z,100130.40
2023-10-23T13:03:18.862Z,100125.20
2023-10-23T13:05:46.912Z,100125.40
2023-10-23T13:08:14.860Z,100127.40
2023-10-23T13:10:42.856Z,100124.60
2023-10-23T13:13:10.914Z,100121.80
2023-10-23T13:15:38.907Z,100120.00
2023-10-23T13:18:06.905Z,100122.60
2023-10-23T13:21:29.600Z,100125.60
2023-10-23T13:23:23.337Z,100123.80
2023-10-23T13:26:05.865Z,100126.00
2023-10-23T13:28:38.661Z,100122.80
2023-10-23T13:31:06.778Z,100119.00
2023-10-23T13:33:34.829Z,100119.20
2023-10-23T13:36:03.223Z,100122.20
2023-10-23T13:38:31.696Z,100121.40
2023-10-23T13:40:59.775Z,100119.80
2023-10-23T13:43:28.047Z,100115.40
2023-10-23T13:45:56.350Z,100120.20
2023-10-23T13:48:24.394Z,100119.40
2023-10-23T13:50:53.315Z,100120.00
2023-10-23T13:53:23.594Z,100118.00
2023-10-23T13:55:52.844Z,100117.20
2023-10-23T13:58:20.895Z,100119.20
2023-10-23T14:00:49.559Z,100113.40
2023-10-23T14:03:17.835Z,100120.40
2023-10-23T14:05:46.176Z,100123.40
2023-10-23T14:08:14.242Z,100127.20
2023-10-23T14:10:42.830Z,100121.60
2023-10-23T14:13:11.041Z,100117.60
2023-10-23T14:15:39.312Z,100122.80
2023-10-23T14:18:07.590Z,100124.20
2023-10-23T14:20:35.724Z,100121.40
2023-10-23T14:23:03.776Z,100125.00
2023-10-23T14:25:31.867Z,100123.20
2023-10-23T14:27:59.949Z,100118.00
2023-10-23T14:30:28.088Z,100114.40
2023-10-23T14:32:56.237Z,100116.60
2023-10-23T14:35:24.138Z,100121.40
2023-10-23T14:37:52.287Z,100120.80
2023-10-23T14:40:20.512Z,100110.80
2023-10-23T14:42:48.943Z,100114.20
2023-10-23T14:45:17.023Z,100113.40
2023-10-23T14:47:45.130Z,100113.60
2023-10-23T14:50:13.266Z,100110.60
2023-10-23T14:52:41.343Z,100115.80
2023-10-23T14:55:09.850Z,100115.00
2023-10-23T14:57:38.038Z,100114.60
2023-10-23T15:00:07.574Z,100114.00
2023-10-23T15:02:35.794Z,100116.80
2023-10-23T15:05:04.522Z,100118.80
2023-10-23T15:07:33.143Z,100117.80
2023-10-23T15:10:01.383Z,100113.60
2023-10-23T15:12:29.661Z,100115.20
2023-10-23T15:14:57.866Z,100114.40
2023-10-23T15:17:26.111Z,100110.40
2023-10-23T15:19:55.863Z,100115.00
2023-10-23T15:22:24.113Z,100121.20
2023-10-23T15:24:52.216Z,100126.20
2023-10-23T15:27:20.307Z,100129.40
2023-10-23T15:29:48.497Z,100135.40
2023-10-23T15:32:16.741Z,100139.20
2023-10-23T15:34:44.696Z,100140.40
2023-10-23T15:37:13.050Z,100146.60
2023-10-23T15:39:45.328Z,100147.00
2023-10-23T15:42:13.452Z,100145.80
2023-10-23T15:44:43.381Z,100150.80
2023-10-23T15:47:13.468Z,100154.00
2023-10-23T15:49:42.172Z,100155.00
2023-10-23T15:52:10.444Z,100148.80
2023-10-23T15:54:39.062Z,100145.20
2023-10-23T15:57:07.105Z,100148.40
2023-10-23T15:59:35.192Z,100146.20
2023-10-23T16:02:03.629Z,100146.60
2023-10-23T16:04:31.914Z,100149.40
2023-10-23T16:07:00.324Z,100153.20
2023-10-23T16:09:29.155Z,100154.40
2023-10-23T16:11:57.364Z,100151.60
2023-10-23T16:14:53.723Z,100150.40
2023-10-23T16:17:26.397Z,100155.40
2023-10-23T16:19:54.364Z,100155.00
2023-10-23T16:22:24.020Z,100154.60
2023-10-23T16:24:52.474Z,100159.40
2023-10-23T16:27:20.432Z,100159.40
2023-10-23T16:29:50.306Z,100158.20
2023-10-23T16:32:18.758Z,100158.40
2023-10-23T16:34:47.155Z,100164.60
2023-10-23T16:37:15.356Z,100167.00
2023-10-23T16:39:46.491Z,100168.00
2023-10-23T16:42:14.596Z,100171.20
2023-10-23T16:44:54.695Z,100178.80
2023-10-23T16:47:24.353Z,100175.20
2023-10-23T16:49:56.085Z,100178.00
2023-10-23T16:52:24.252Z,100180.20
2023-10-23T16:54:52.521Z,100175.80
2023-10-23T16:57:20.620Z,100179.40
2023-10-23T16:59:49.026Z,100174.60
2023-10-23T17:02:17.253Z,100168.80
2023-10-23T17:04:47.905Z,100162.60
2023-10-23T17:07:19.987Z,100165.60
2023-10-23T17:09:51.053Z,100165.40
2023-10-23T17:12:19.648Z,100162.60
2023-10-23T17:14:47.774Z,100154.40
2023-10-23T17:17:16.466Z,100159.20
2023-10-23T17:19:50.650Z,100158.60
2023-10-23T17:22:18.873Z,100160.80
2023-10-23T17:24:46.961Z,100166.40
2023-10-23T17:27:14.828Z,100166.80
2023-10-23T17:29:43.894Z,100170.60
2023-10-23T17:32:11.982Z,100172.60
2023-10-23T17:34:40.644Z,100166.80
2023-10-23T17:37:08.848Z,100165.00
2023-10-23T17:39:37.015Z,100175.60
2023-10-23T17:42:05.434Z,100172.00
2023-10-23T17:44:33.642Z,100174.00
2023-10-23T17:47:01.940Z,100169.60
2023-10-23T17:49:30.504Z,100169.20
2023-10-23T17:51:59.594Z,100167.00
2023-10-23T17:54:27.685Z,100171.60
2023-10-23T17:56:58.040Z,100173.00
2023-10-23T17:59:26.094Z,100173.80
2023-10-23T18:01:54.296Z,100169.60
2023-10-23T18:04:22.627Z,100170.60
2023-10-23T18:06:50.627Z,100173.40
2023-10-23T18:09:25.004Z,100168.00
2023-10-23T18:11:53.140Z,100174.80
2023-10-23T18:14:21.445Z,100173.60
2023-10-23T18:16:49.622Z,100173.80
2023-10-23T18:19:18.180Z,100172.40
2023-10-23T18:21:46.783Z,100175.60
2023-10-23T18:24:16.616Z,100175.40
2023-10-23T18:26:44.678Z,100175.80
2023-10-23T18:29:14.601Z,100179.00
2023-10-23T18:31:46.563Z,100177.40
2023-10-23T18:34:14.839Z,100185.60
2023-10-23T18:36:42.898Z,100186.00
2023-10-23T18:39:10.969Z,100183.60
2023-10-23T18:41:41.913Z,100186.60
2023-10-23T18:44:10.659Z,100192.60
2023-10-23T18:46:39.497Z,100188.80
2023-10-23T18:49:07.533Z,100186.60
2023-10-23T18:51:35.864Z,100187.40
2023-10-23T18:54:03.941Z,100182.40
2023-10-23T18:56:33.404Z,100183.80
2023-10-23T18:59:01.463Z,100183.40
2023-10-23T19:01:29.975Z,100181.20
2023-10-23T19:03:58.388Z,100175.00
2023-10-23T19:06:26.400Z,100175.60
2023-10-23T19:08:55.483Z,100172.60
2023-10-23T19:11:24.948Z,100177.20
2023-10-23T19:13:52.921Z,100182.60
2023-10-23T19:16:24.564Z,100191.00
2023-10-23T19:18:55.885Z,100195.60
2023-10-23T19:21:26.023Z,100199.40
2023-10-23T19:23:54.027Z,100195.60
2023-10-23T19:26:22.973Z,100201.00
2023-10-23T19:28:51.041Z,100201.80
2023-10-23T19:31:24.307Z,100205.40
2023-10-23T19:33:52.658Z,100207.80
2023-10-23T19:36:25.561Z,100200.60
2023-10-23T19:38:54.013Z,100202.40
2023-10-23T19:41:27.279Z,100203.40
2023-10-23T19:43:55.733Z,100202.60
2023-10-23T19:46:24.140Z,100203.60
2023-10-23T19:49:09.966Z,100200.40
2023-10-23T19:51:56.052Z,100202.00
2023-10-23T19:54:48.315Z,100204.40
2023-10-23T19:57:34.526Z,100207.60
2023-10-23T20:00:05.115Z,100206.80
2023-10-23T20:02:33.587Z,100209.20
2023-10-23T20:05:01.911Z,100210.80
2023-10-23T20:07:30.110Z,100211.60
2023-10-23T20:09:58.141Z,100209.40
2023-10-23T20:12:26.447Z,100207.60
2023-10-23T20:14:54.405Z,100213.80
2023-10-23T20:17:23.554Z,100215.80
2023-10-23T20:19:52.464Z,100214.20
2023-10-23T20:22:20.749Z,100209.40
2023-10-23T20:24:48.734Z,100208.40
2023-10-23T20:27:16.705Z,100208.40
2023-10-23T20:29:45.592Z,100209.60
2023-10-23T20:32:13.645Z,100206.80
2023-10-23T20:34:41.856Z,100213.80
2023-10-23T20:37:09.861Z,100210.40
2023-10-23T20:39:38.771Z,100213.00
2023-10-23T20:42:07.016Z,100214.40
2023-10-23T20:44:34.988Z,100212.40
2023-10-23T20:47:04.330Z,100214.20
2023-10-23T20:49:33.915Z,100216.20
2023-10-23T20:52:02.174Z,100211.80
2023-10-23T20:54:30.180Z,100206.80
2023-10-23T20:56:58.224Z,100213.00
2023-10-23T20:59:26.217Z,100214.40
2023-10-23T21:01:54.301Z,100216.40
2023-10-23T21:04:22.415Z,100216.20
2023-10-23T21:06:51.839Z,100216.40
2023-10-23T21:09:19.868Z,100214.00
2023-10-23T21:11:47.786Z,100219.40
2023-10-23T21:14:15.911Z,100224.00
2023-10-23T21:16:44.031Z,100216.60
2023-10-23T21:19:12.555Z,100208.80
2023-10-23T21:21:40.785Z,100208.80
2023-10-23T21:24:08.939Z,100213.00
2023-10-23T21:26:37.199Z,100215.00
2023-10-23T21:29:24.348Z,100209.00
2023-10-23T21:31:53.812Z,100208.60
2023-10-23T21:34:21.932Z,100199.20
2023-10-23T21:36:50.567Z,100199.80
2023-10-23T21:39:18.721Z,100201.20
2023-10-23T21:41:46.796Z,100210.80
2023-10-23T21:44:14.826Z,100206.80
2023-10-23T21:46:43.029Z,100210.40
2023-10-23T21:49:11.691Z,100201.20
2023-10-23T21:51:41.418Z,100195.00
2023-10-23T21:54:10.464Z,100194.20
2023-10-23T21:57:19.892Z,100191.60
2023-10-23T21:59:27.427Z,100196.20
2023-10-23T22:01:55.864Z,100196.00
2023-10-23T22:04:24.459Z,100200.80
2023-10-23T22:06:52.707Z,100198.40
2023-10-23T22:09:20.969Z,100201.60
2023-10-23T22:11:49.486Z,100197.00
2023-10-23T22:14:17.878Z,100189.20
2023-10-23T22:16:45.955Z,100190.60
2023-10-23T22:19:14.578Z,100191.80
2023-10-23T22:21:42.806Z,100198.00
2023-10-23T22:24:10.786Z,100197.20
2023-10-23T22:26:38.825Z,100197.80
2023-10-23T22:29:06.925Z,100197.20
2023-10-23T22:31:35.156Z,100190.20
2023-10-23T22:34:03.377Z,100188.60
2023-10-23T22:36:31.468Z,100184.40
2023-10-23T22:38:59.441Z,100186.40
2023-10-23T22:41:27.521Z,100190.00
2023-10-23T22:43:55.553Z,100191.00
2023-10-23T22:46:24.219Z,100194.80
2023-10-23T22:48:52.456Z,100188.40
2023-10-23T22:51:20.853Z,100186.80
2023-10-23T22:53:49.156Z,100185.40
2023-10-23T22:56:21.909Z,100183.60
2023-10-23T22:58:50.209Z,100181.20
2023-10-23T23:01:20.262Z,100190.40
2023-10-23T23:03:48.712Z,100185.80
2023-10-23T23:06:20.301Z,100185.60
2023-10-23T23:08:51.709Z,100190.20
2023-10-23T23:11:20.022Z,100190.00
2023-10-23T23:13:48.125Z,100185.80
2023-10-23T23:16:19.794Z,100184.80
2023-10-23T23:18:52.032Z,100178.80
2023-10-23T23:21:21.449Z,100182.60
2023-10-23T23:23:49.323Z,100180.00
2023-10-23T23:26:17.430Z,100180.00
2023-10-23T23:28:45.653Z,100181.00
2023-10-23T23:31:13.749Z,100186.60
2023-10-23T23:33:41.750Z,100187.40
2023-10-23T23:36:09.727Z,100180.80
2023-10-23T23:38:38.399Z,100187.60
2023-10-23T23:41:07.338Z,100181.20
2023-10-23T23:43:36.673Z,100182.40
2023-10-23T23:46:04.812Z,100183.80
2023-10-23T23:48:33.123Z,100184.20
2023-10-23T23:51:01.103Z,100189.60
2023-10-23T23:53:29.202Z,100194.20
2023-10-23T23:55:57.200Z,100191.80
2023-10-23T23:58:26.674Z,100191.80
